Latest Weather Observations for Rottnest Island

IDW60801

Issued at 9:02 pm WST Sunday 24 May 2015 (issued every 30 minutes, with the page automatically refreshed every 10 minutes)

About weather observations | Map of weather stations | Latest weather observations for WA | Other Formats
Station Details ID: 009193 Name: ROTTNEST ISLAND Lat: -32.01 Lon: 115.50 Height: 43.1 m
Data from the previous 72 hours. | See also: Recent months at Rottnest Island
Date/Time
WST
Temp
°C
App
Temp
°C
Dew
Point
Rel
Hum
%
Delta-T
°C
Wind Press
QNH
hPa
Press
MSL
hPa
Rain
since 9 am
mm
Dir
 
Spd
km/h
Gust
km/h
Spd
kts
Gust
kts
24/09:00pm 18.2 14.5 10.1 59 4.3 S 20 28 11 15 1021.6 1021.5 0.0
24/08:30pm 17.7 14.2 10.3 62 3.9 S 19 22 10 12 1021.5 1021.4 0.0
24/08:00pm 17.9 14.7 10.0 60 4.2 SSE 17 24 9 13 1021.2 1021.1 0.0
24/07:30pm 17.6 14.4 10.0 61 4.0 S 17 22 9 12 1021.3 1021.2 0.0
24/07:00pm 17.2 15.1 9.6 61 4.0 SSW 11 15 6 8 1021.2 1021.1 0.0
24/06:30pm 17.0 14.9 9.9 63 3.7 SSW 11 15 6 8 1021.1 1021.0 0.0
24/06:00pm 17.3 14.9 10.2 63 3.8 S 13 15 7 8 1020.8 1020.7 0.0
24/05:30pm 17.1 14.4 10.5 65 3.5 S 15 17 8 9 1020.6 1020.5 0.0
24/05:00pm 17.6 15.9 10.0 61 4.0 SSE 9 13 5 7 1020.4 1020.3 0.0
24/04:30pm 18.3 16.3 10.2 59 4.3 SE 11 15 6 8 1020.3 1020.2 0.0
24/04:00pm 18.5 16.0 9.8 57 4.6 SSE 13 17 7 9 1020.3 1020.2 0.0
24/03:30pm 18.6 16.1 9.7 56 4.7 SE 13 17 7 9 1020.4 1020.3 0.0
24/03:00pm 18.6 15.7 9.7 56 4.7 SE 15 19 8 10 1020.3 1020.2 0.0
24/02:30pm 18.4 15.5 9.5 56 4.7 SSE 15 19 8 10 1020.3 1020.2 0.0
24/02:00pm 18.6 15.4 9.9 57 4.6 S 17 20 9 11 1020.4 1020.3 0.0
24/01:30pm 18.9 15.6 9.7 55 4.9 SSE 17 22 9 12 1020.7 1020.6 0.0
24/01:00pm 18.5 15.3 9.8 57 4.6 SSE 17 22 9 12 1020.9 1020.8 0.0
24/12:30pm 18.3 15.0 9.6 57 4.6 SSE 17 22 9 12 1021.0 1020.9 0.0
24/12:00pm 18.1 15.0 10.2 60 4.2 SE 17 24 9 13 1021.3 1021.2 0.0
24/11:30am 17.8 14.7 10.2 61 4.0 SE 17 26 9 14 1021.6 1021.5 0.0
24/11:00am 17.8 14.7 10.4 62 3.9 ESE 17 24 9 13 1022.1 1022.0 0.0
24/10:30am 17.9 15.7 10.8 63 3.8 ESE 13 20 7 11 1022.3 1022.2 0.0
24/10:00am 17.3 14.6 10.4 64 3.7 SE 15 20 8 11 1022.5 1022.4 0.0
24/09:30am 17.2 14.1 10.3 64 3.7 SE 17 26 9 14 1022.6 1022.5 0.0
24/09:00am 16.9 14.3 10.7 67 3.3 ESE 15 22 8 12 1022.5 1022.4 1.2
24/08:30am 16.3 13.8 11.2 72 2.7 ESE 15 20 8 11 1022.5 1022.4 1.2
24/08:00am 15.6 12.4 11.2 75 2.3 ESE 19 24 10 13 1022.2 1022.1 1.2
24/07:30am 15.2 12.3 11.0 76 2.2 ESE 17 24 9 13 1021.9 1021.8 1.2
24/07:00am 15.0 11.4 10.6 75 2.3 ESE 20 28 11 15 1021.4 1021.3 1.2
24/06:30am 15.0 11.7 11.0 77 2.1 ESE 19 26 10 14 1021.1 1021.0 1.2
24/06:00am 15.0 11.4 10.6 75 2.3 ESE 20 28 11 15 1021.0 1020.9 1.2
24/05:30am 15.3 11.9 10.7 74 2.4 ESE 19 26 10 14 1020.9 1020.8 1.2
24/05:00am 15.2 11.8 10.4 73 2.5 ESE 19 26 10 14 1020.8 1020.7 1.2
24/04:30am 15.1 12.0 10.3 73 2.5 ESE 17 24 9 13 1020.8 1020.7 1.2
24/04:00am 15.3 12.3 10.5 73 2.5 ESE 17 24 9 13 1020.7 1020.6 1.2
24/03:30am 15.5 12.0 10.3 71 2.7 ESE 19 28 10 15 1020.6 1020.5 1.2
24/03:00am 15.9 12.0 10.7 71 2.8 SE 22 32 12 17 1020.5 1020.4 1.2
24/02:30am 16.1 12.2 10.8 71 2.8 SE 22 32 12 17 1020.5 1020.4 1.2
24/02:00am 16.5 11.4 10.6 68 3.1 SE 28 35 15 19 1020.3 1020.2 1.2
24/01:30am 16.3 11.3 10.8 70 2.9 SE 28 37 15 20 1020.1 1020.0 1.2
24/01:00am 16.4 11.8 11.1 71 2.8 SE 26 35 14 19 1020.0 1019.9 1.2
24/12:30am 16.8 11.6 11.5 71 2.9 SSE 30 39 16 21 1020.0 1019.9 1.2
24/12:00am 16.8 11.2 11.5 71 2.9 SSE 32 41 17 22 1019.9 1019.8 1.2
 
Date/Time
WST
Temp
°C
App
Temp
°C
Dew
Point
Rel
Hum
%
Delta-T
°C
Wind Press
QNH
hPa
Press
MSL
hPa
Rain
since 9 am
mm
Dir
 
Spd
km/h
Gust
km/h
Spd
kts
Gust
kts
23/11:30pm 17.1 11.6 12.4 74 2.6 SSE 33 41 18 22 1019.7 1019.6 1.2
23/11:00pm 17.7 12.2 11.9 69 3.2 SSE 32 39 17 21 1019.7 1019.6 1.2
23/10:30pm 17.7 13.1 12.2 70 3.0 S 28 39 15 21 1019.7 1019.6 1.2
23/10:00pm 17.9 13.2 12.1 69 3.2 S 28 33 15 18 1019.9 1019.8 1.2
23/09:30pm 17.9 13.2 12.1 69 3.2 S 28 35 15 19 1019.9 1019.8 1.2
23/09:00pm 17.8 14.3 13.3 75 2.5 SSE 24 32 13 17 1019.9 1019.8 1.2
23/08:30pm 17.6 14.3 14.1 80 2.0 SSE 24 33 13 18 1019.9 1019.8 1.2
23/08:00pm 17.7 14.5 14.2 80 2.0 SSE 24 30 13 16 1019.7 1019.6 1.2
23/07:30pm 17.6 13.0 13.5 77 2.3 S 30 35 16 19 1019.5 1019.4 1.2
23/07:00pm 17.7 13.2 13.8 78 2.2 S 30 37 16 20 1019.2 1019.1 1.2
23/06:30pm 17.5 12.7 14.0 80 2.0 SSE 32 39 17 21 1019.1 1019.0 1.2
23/06:00pm 17.5 11.7 14.0 80 2.0 S 37 44 20 24 1018.7 1018.6 1.2
23/05:30pm 17.1 11.8 15.4 90 1.0 S 37 44 20 24 1018.5 1018.4 1.0
23/05:00pm 17.5 12.9 15.0 85 1.5 SSW 33 41 18 22 1018.5 1018.4 0.0
23/04:48pm 17.9 14.7 14.2 79 2.1 S 24 41 13 22 1018.4 1018.3 0.0
23/04:30pm 18.5 17.0 13.1 71 3.0 SSW 13 17 7 9 1018.5 1018.4 0.0
23/04:00pm 19.9 17.3 13.1 65 3.9 SW 19 24 10 13 1018.3 1018.2 0.0
23/03:30pm 19.9 17.4 12.4 62 4.2 SW 17 20 9 11 1018.1 1018.0 0.0
23/03:00pm 19.5 17.1 12.7 65 3.8 W 17 19 9 10 1018.1 1018.0 0.0
23/02:30pm 19.2 15.1 12.7 66 3.7 SW 26 33 14 18 1018.1 1018.0 0.0
23/02:00pm 19.6 15.3 13.3 67 3.6 SW 28 32 15 17 1018.1 1018.0 0.0
23/01:30pm 20.0 15.2 13.0 64 4.0 SW 30 35 16 19 1018.1 1018.0 0.0
23/01:00pm 20.3 15.6 14.2 68 3.5 WSW 32 37 17 20 1018.2 1018.1 0.0
23/12:30pm 21.4 18.3 11.7 54 5.4 W 19 26 10 14 1018.3 1018.2 0.0
23/12:00pm 21.2 18.5 11.8 55 5.2 W 17 24 9 13 1018.6 1018.5 0.0
23/11:30am 21.3 18.3 12.4 57 5.0 W 20 24 11 13 1018.7 1018.6 0.0
23/11:00am 20.2 17.3 10.9 55 5.1 WSW 17 22 9 12 1018.9 1018.8 0.0
23/10:30am 20.1 18.3 12.1 60 4.5 NW 13 20 7 11 1019.0 1018.9 0.0
23/10:00am 18.9 18.9 13.7 72 3.0 N 6 9 3 5 1019.0 1018.9 0.0
23/09:30am 18.9 17.7 14.0 73 2.8 NNE 13 17 7 9 1018.8 1018.7 0.0
23/09:00am 18.8 17.7 14.3 75 2.6 NNW 13 17 7 9 1018.8 1018.7 0.0
23/08:30am 17.7 17.1 13.6 77 2.3 NNW 9 13 5 7 1018.7 1018.6 0.0
23/08:00am 16.9 15.8 12.0 73 2.7 NNW 9 11 5 6 1018.5 1018.4 0.0
23/07:30am 17.3 14.7 9.2 59 4.2 W 13 15 7 8 1018.3 1018.2 0.0
23/07:00am 17.2 14.2 9.1 59 4.2 WSW 15 17 8 9 1018.1 1018.0 0.0
23/06:30am 17.5 15.0 9.7 60 4.1 W 13 15 7 8 1017.8 1017.7 0.0
23/06:00am 17.3 14.7 9.5 60 4.1 WSW 13 13 7 7 1017.7 1017.6 0.0
23/05:30am 17.1 14.5 9.5 61 4.0 WSW 13 15 7 8 1017.5 1017.4 0.0
23/05:00am 16.7 14.4 10.5 67 3.3 WSW 13 17 7 9 1017.4 1017.3 0.0
23/04:30am 16.9 14.6 10.3 65 3.5 WSW 13 15 7 8 1017.3 1017.2 0.0
23/04:00am 17.0 14.4 10.6 66 3.4 WSW 15 20 8 11 1017.3 1017.2 0.0
23/03:30am 16.7 14.3 9.9 64 3.6 WSW 13 17 7 9 1017.3 1017.2 0.0
23/03:00am 16.9 15.0 10.5 66 3.4 WSW 11 13 6 7 1017.2 1017.1 0.0
23/02:30am 16.5 14.2 10.4 67 3.2 WSW 13 15 7 8 1017.3 1017.2 0.0
23/02:00am 16.8 14.9 10.6 67 3.3 W 11 13 6 7 1017.2 1017.1 0.0
23/01:30am 17.2 16.2 11.0 67 3.3 WSW 7 9 4 5 1017.2 1017.1 0.0
23/01:00am 17.2 15.8 11.0 67 3.3 SSW 9 13 5 7 1017.3 1017.2 0.0
23/12:30am 16.9 15.5 11.0 68 3.2 SSW 9 13 5 7 1017.4 1017.3 0.0
23/12:00am 17.2 16.0 11.5 69 3.1 S 9 11 5 6 1017.5 1017.4 0.0
 
Date/Time
WST
Temp
°C
App
Temp
°C
Dew
Point
Rel
Hum
%
Delta-T
°C
Wind Press
QNH
hPa
Press
MSL
hPa
Rain
since 9 am
mm
Dir
 
Spd
km/h
Gust
km/h
Spd
kts
Gust
kts
22/11:30pm 16.7 15.1 11.4 71 2.9 SSW 11 13 6 7 1017.6 1017.5 0.0
22/11:00pm 17.1 15.2 11.8 71 2.9 S 13 17 7 9 1017.7 1017.6 0.0
22/10:30pm 16.9 14.8 11.2 69 3.1 SSE 13 15 7 8 1017.7 1017.6 0.0
22/10:00pm 16.9 14.8 11.0 68 3.2 SSE 13 17 7 9 1017.7 1017.6 0.0
22/09:30pm 17.2 14.6 10.8 66 3.4 SE 15 17 8 9 1017.8 1017.7 0.0
22/09:00pm 17.2 14.9 10.3 64 3.7 SE 13 17 7 9 1017.8 1017.7 0.0
22/08:30pm 17.2 15.0 10.8 66 3.4 SSE 13 17 7 9 1017.7 1017.6 0.0
22/08:00pm 17.5 14.8 10.4 63 3.8 SSE 15 19 8 10 1017.8 1017.7 0.0
22/07:30pm 17.2 14.9 10.6 65 3.5 SSE 13 17 7 9 1017.7 1017.6 0.0
22/07:00pm 17.2 14.9 10.6 65 3.5 SSE 13 15 7 8 1017.5 1017.4 0.0
22/06:30pm 16.9 13.7 9.8 63 3.7 SSW 17 20 9 11 1017.7 1017.6 0.0
22/06:00pm 17.2 13.7 10.3 64 3.7 SSW 19 22 10 12 1017.5 1017.4 0.0
22/05:30pm 17.1 14.4 10.2 64 3.7 SSW 15 19 8 10 1017.3 1017.2 0.0
22/05:00pm 17.7 14.9 10.1 61 4.0 SSW 15 19 8 10 1017.2 1017.1 0.0
22/04:30pm 18.5 16.0 9.6 56 4.7 SSW 13 17 7 9 1017.2 1017.1 0.0
22/04:00pm 18.8 16.4 8.7 52 5.3 S 11 17 6 9 1017.1 1017.0 0.0
22/03:30pm 19.1 16.9 9.3 53 5.2 SSW 11 15 6 8 1017.0 1016.9 0.0
22/03:00pm 20.0 18.5 8.4 47 6.0 SW 6 9 3 5 1017.1 1017.0 0.0
22/02:30pm 19.1 17.0 8.1 49 5.7 S 9 13 5 7 1017.0 1016.9 0.0
22/02:00pm 20.6 18.7 7.6 43 6.7 NNE 7 13 4 7 1017.2 1017.1 0.0
22/01:30pm 19.7 17.1 7.8 46 6.1 NNE 11 17 6 9 1017.3 1017.2 0.0
22/01:00pm 19.4 16.9 8.4 49 5.7 NE 11 17 6 9 1017.6 1017.5 0.0
22/12:30pm 19.5 17.0 9.7 53 5.2 NE 13 20 7 11 1017.9 1017.8 0.0
22/12:00pm 19.3 15.8 8.6 50 5.6 NE 17 20 9 11 1018.5 1018.4 0.0
22/11:30am 18.2 14.7 8.7 54 4.9 NE 17 22 9 12 1018.9 1018.8 0.0
22/11:00am 18.0 14.0 8.3 53 5.0 NE 19 26 10 14 1019.3 1019.2 0.0
22/10:30am 17.3 13.1 8.4 56 4.6 NE 20 26 11 14 1019.5 1019.4 0.0
22/10:00am 16.8 12.7 8.8 59 4.1 ENE 20 28 11 15 1019.7 1019.6 0.0
22/09:30am 16.6 12.4 8.3 58 4.2 NE 20 28 11 15 1019.7 1019.6 0.0
22/09:00am 16.1 11.8 7.8 58 4.2 ENE 20 26 11 14 1020.1 1020.0 -
22/08:30am 15.6 11.6 8.1 61 3.8 ENE 19 26 10 14 1020.2 1020.1 -
22/08:00am 14.8 11.1 8.1 64 3.3 ENE 17 24 9 13 1020.3 1020.2 -
22/07:30am 14.5 10.3 7.5 63 3.5 ENE 19 24 10 13 1020.1 1020.0 -
22/07:00am 14.6 10.2 7.6 63 3.5 ENE 20 26 11 14 1020.0 1019.9 -
22/06:30am 14.5 10.3 7.5 63 3.5 ENE 19 24 10 13 1019.9 1019.8 -
22/06:00am 14.4 10.2 7.5 63 3.4 NE 19 28 10 15 1019.9 1019.8 -
22/05:30am 14.4 10.2 7.5 63 3.4 NE 19 22 10 12 1020.1 1020.0 -
22/05:00am 14.2 10.3 7.3 63 3.4 NE 17 22 9 12 1020.3 1020.2 -
22/04:30am 14.0 10.9 7.3 64 3.3 ENE 13 20 7 11 1020.2 1020.1 -
22/04:00am 14.1 11.0 7.4 64 3.3 ENE 13 19 7 10 1020.3 1020.2 -
22/03:30am 13.8 10.3 7.1 64 3.3 ENE 15 20 8 11 1020.4 1020.3 -
22/03:00am 13.8 10.3 7.3 65 3.2 E 15 19 8 10 1020.6 1020.5 0.0
22/02:30am 14.0 10.0 6.8 62 3.5 E 17 20 9 11 1020.8 1020.7 -
22/02:00am 14.1 10.5 6.7 61 3.6 E 15 19 8 10 1021.0 1020.9 -
22/01:30am 14.5 10.5 6.6 59 3.8 ENE 17 20 9 11 1021.3 1021.2 -
22/01:00am 14.9 10.9 6.5 57 4.1 ENE 17 20 9 11 1021.6 1021.5 -
22/12:30am 15.5 11.4 6.0 53 4.6 ENE 17 24 9 13 1021.8 1021.7 -
22/12:00am 15.2 10.9 5.4 52 4.6 E 17 24 9 13 1021.8 1021.7 -
 
Date/Time
WST
Temp
°C
App
Temp
°C
Dew
Point
Rel
Hum
%
Delta-T
°C
Wind Press
QNH
hPa
Press
MSL
hPa
Rain
since 9 am
mm
Dir
 
Spd
km/h
Gust
km/h
Spd
kts
Gust
kts
21/11:30pm 15.0 10.9 6.3 56 4.2 E 17 24 9 13 1022.0 1021.9 -
21/11:00pm 15.4 11.7 6.4 55 4.4 E 15 20 8 11 1022.0 1021.9 -
21/10:30pm 15.8 11.7 6.3 53 4.6 ESE 17 22 9 12 1022.2 1022.1 -
21/10:00pm 16.1 12.4 6.3 52 4.8 E 15 20 8 11 1022.5 1022.4 -
21/09:30pm 16.4 13.0 6.0 50 5.1 E 13 20 7 11 1022.6 1022.5 -

Other Formats:

Comma delimited format used in spreadsheet applications
http://www.bom.gov.au/fwo/IDW60801/IDW60801.94602.axf

JavaScript Object Notation format (JSON) in row-major order
http://www.bom.gov.au/fwo/IDW60801/IDW60801.94602.json